Time;durP1;ratioP1;P1;durP2;ratioP2;P2;SDS_P1;SDS_P2;PMS_P1;PMS_P2;Temp;Humidity;BMP_temperature;BMP_pressure;BME280_temperature;BME280_humidity;BME280_pressure;Samples;Min_cycle;Max_cycle;Signal;HPM_P1;HPM_P2
2022/11/11 00:01:13;;;;;;;;;;;;;;;5.42;nan;101985.56;5066286;28;20135;-86
2022/11/11 00:03:39;;;;;;;;;;;;;;;5.34;nan;101990.38;5052062;28;19916;-86
2022/11/11 00:06:05;;;;;;;;;;;;;;;5.27;nan;101983.78;5067291;28;19921;-85
2022/11/11 00:08:31;;;;;;;;;;;;;;;5.21;nan;101982.31;5058681;28;19920;-85
2022/11/11 00:11:15;;;;;;;4.57;2.70;;;;;;;5.16;nan;101973.84;5082582;28;20381;-86
2022/11/11 00:13:41;;;;;;;5.00;2.72;;;;;;;5.14;nan;101975.69;5068290;28;20030;-86
2022/11/11 00:16:11;;;;;;;;;;;;;;;5.08;nan;101982.13;5057728;28;20042;-86
2022/11/11 00:27:04;;;;;;;;;;;;;;;4.87;nan;101970.13;5084409;28;20368;-87
2022/11/11 00:29:30;;;;;;;;;;;;;;;4.82;nan;101974.75;5057212;28;19924;-86
2022/11/11 00:34:39;;;;;;;4.40;3.10;;;;;;;4.75;nan;101984.69;5071152;28;20032;-85
2022/11/11 00:37:05;;;;;;;5.68;3.05;;;;;;;4.84;nan;101992.09;5055678;28;20394;-86
2022/11/11 00:39:30;;;;;;;5.10;3.10;;;;;;;4.93;nan;101995.16;5078258;28;20777;-86
2022/11/11 00:41:55;;;;;;;4.90;3.00;;;;;;;5.00;nan;101996.53;5063023;28;20490;-85
2022/11/11 00:44:21;;;;;;;3.37;2.70;;;;;;;5.03;nan;101992.00;5078606;28;20423;-85
2022/11/11 00:52:13;;;;;;;2.75;1.92;;;;;;;5.08;nan;102005.72;5071544;28;20410;-86
2022/11/11 00:54:38;;;;;;;3.23;2.13;;;;;;;5.10;nan;102005.59;5059400;28;21018;-86
2022/11/11 00:57:04;;;;;;;4.40;2.50;;;;;;;5.13;nan;102018.59;5063432;28;20398;-85
2022/11/11 00:59:29;;;;;;;3.57;2.50;;;;;;;5.14;nan;102025.50;5054384;28;20411;-87
2022/11/11 01:01:54;;;;;;;4.50;3.23;;;;;;;5.18;nan;102026.22;5058362;28;20885;-85
2022/11/11 01:04:20;;;;;;;3.60;2.60;;;;;;;5.18;nan;102028.84;5059346;28;20465;-86
2022/11/11 01:06:45;;;;;;;3.87;2.40;;;;;;;5.19;nan;102033.97;5066099;28;20403;-86
2022/11/11 01:09:10;;;;;;;2.93;2.13;;;;;;;5.18;nan;102024.44;5072418;28;20428;-85
2022/11/11 01:11:35;;;;;;;4.30;2.40;;;;;;;5.19;nan;102031.34;5067385;28;20430;-86
2022/11/11 01:14:01;;;;;;;4.37;2.63;;;;;;;5.21;nan;102024.25;5052021;28;20410;-86
2022/11/11 01:16:26;;;;;;;4.43;2.30;;;;;;;5.23;nan;102014.53;5078340;28;20455;-87
2022/11/11 01:18:53;;;;;;;4.03;2.17;;;;;;;5.27;nan;102015.25;5074799;28;20479;-86
2022/11/11 01:21:23;;;;;;;3.72;2.58;;;;;;;5.32;nan;102019.31;5072568;28;20439;-85
2022/11/11 01:23:50;;;;;;;3.33;2.00;;;;;;;5.35;nan;102014.84;5074297;28;20394;-85
2022/11/11 01:26:25;;;;;;;3.35;2.40;;;;;;;5.36;nan;102013.88;5053335;28;20448;-86
2022/11/11 01:28:52;;;;;;;4.20;2.58;;;;;;;5.37;nan;102020.84;5075789;28;20952;-87
2022/11/11 01:31:20;;;;;;;4.15;2.60;;;;;;;5.37;nan;102021.69;5056402;28;20502;-86
2022/11/11 01:33:46;;;;;;;4.13;2.70;;;;;;;5.34;nan;102014.00;5054677;28;20423;-86
2022/11/11 01:36:15;;;;;;;4.43;3.10;;;;;;;5.33;nan;102013.13;5052787;28;20437;-86
2022/11/11 01:38:41;;;;;;;2.90;2.20;;;;;;;5.30;nan;102021.16;5070766;28;20427;-86
2022/11/11 01:43:54;;;;;;;3.13;1.95;;;;;;;5.07;nan;102024.13;5075068;28;20059;-87
2022/11/11 01:46:27;;;;;;;3.30;2.33;;;;;;;5.11;nan;102025.66;5050354;28;20413;-85
2022/11/11 01:49:19;;;;;;;4.18;2.42;;;;;;;4.96;nan;102016.84;5072508;28;20099;-86
2022/11/11 01:52:05;;;;;;;4.75;2.90;;;;;;;4.83;nan;102021.00;5054622;28;20441;-85
2022/11/11 01:54:34;;;;;;;;;;;;;;;4.73;nan;102017.16;5057419;28;20024;-87
2022/11/11 01:57:09;;;;;;;;;;;;;;;4.67;nan;102015.66;5079429;28;19955;-85
2022/11/11 01:59:36;;;;;;;;;;;;;;;4.62;nan;102009.81;5057242;28;20003;-86
2022/11/11 02:02:08;;;;;;;4.10;2.53;;;;;;;4.59;nan;102012.59;5069636;28;19913;-86
2022/11/11 02:07:20;;;;;;;3.70;2.30;;;;;;;4.50;nan;102008.66;5079444;28;19923;-86
2022/11/11 02:09:47;;;;;;;4.30;2.97;;;;;;;4.58;nan;102014.38;5073848;28;20414;-85
2022/11/11 02:14:58;;;;;;;3.72;2.72;;;;;;;4.70;nan;102006.84;5070284;28;20464;-86
2022/11/11 02:17:25;;;;;;;3.60;2.60;;;;;;;4.69;nan;102008.56;5077843;28;20741;-85
2022/11/11 02:20:00;;;;;;;3.42;2.60;;;;;;;4.68;nan;102007.75;5072997;28;20971;-85
2022/11/11 02:22:36;;;;;;;;;;;;;;;4.56;nan;102013.59;5074106;28;20044;-86
2022/11/11 02:25:03;;;;;;;;;;;;;;;4.42;nan;102014.28;5074652;28;19913;-85
2022/11/11 02:27:30;;;;;;;;;;;;;;;4.35;nan;102010.25;5057843;28;19999;-86
2022/11/11 02:29:56;;;;;;;;;;;;;;;4.31;nan;102007.88;5058041;28;19926;-86
2022/11/11 02:32:22;;;;;;;3.80;2.35;;;;;;;4.28;nan;102000.16;5056088;28;20000;-85
2022/11/11 02:34:47;;;;;;;4.22;2.60;;;;;;;4.25;nan;101993.31;5075880;28;20096;-86
2022/11/11 02:37:21;;;;;;;3.77;2.90;;;;;;;4.34;nan;101992.00;5057831;28;20434;-85
2022/11/11 02:39:49;;;;;;;4.28;2.78;;;;;;;4.42;nan;102000.34;5084795;28;20404;-87
2022/11/11 02:42:17;;;;;;;4.40;3.30;;;;;;;4.45;nan;102006.25;5089032;28;20427;-87
2022/11/11 02:44:42;;;;;;;;;;;;;;;4.36;nan;102008.47;5061009;28;20112;-87
2022/11/11 02:47:07;;;;;;;;;;;;;;;4.29;nan;102013.19;5075072;28;19916;-87
2022/11/11 02:49:32;;;;;;;;;;;;;;;4.24;nan;102013.41;5086654;28;19920;-86
2022/11/11 02:51:58;;;;;;;4.27;3.10;;;;;;;4.21;nan;102013.53;5072803;28;19923;-86
2022/11/11 02:54:23;;;;;;;5.37;3.70;;;;;;;4.30;nan;102014.03;5076857;28;20388;-87
2022/11/11 02:57:07;;;;;;;4.30;3.40;;;;;;;4.39;nan;102016.22;5055749;28;20400;-86
2022/11/11 02:59:33;;;;;;;4.50;2.90;;;;;;;4.32;nan;102031.38;5062171;28;20044;-86
2022/11/11 03:01:59;;;;;;;4.80;3.20;;;;;;;4.40;nan;102033.59;5058589;28;20799;-87
2022/11/11 03:04:24;;;;;;;7.03;4.40;;;;;;;4.46;nan;102028.94;5055269;28;20384;-85
2022/11/11 03:06:49;;;;;;;6.30;4.53;;;;;;;4.53;nan;102025.97;5054468;28;20548;-85
2022/11/11 03:09:15;;;;;;;4.97;3.50;;;;;;;4.55;nan;102027.59;5054508;28;20454;-86
2022/11/11 03:11:40;;;;;;;4.73;3.20;;;;;;;4.57;nan;102020.53;5073037;28;20407;-85
2022/11/11 03:14:07;;;;;;;5.88;4.00;;;;;;;4.61;nan;102024.69;5072195;28;20529;-85
2022/11/11 03:19:16;;;;;;;4.88;3.22;;;;;;;4.51;nan;102027.84;5075216;28;20101;-85
2022/11/11 03:21:42;;;;;;;5.40;2.78;;;;;;;4.41;nan;102033.53;5074161;28;20028;-85
2022/11/11 03:24:07;;;;;;;;;;;;;;;4.33;nan;102040.91;5056020;28;20032;-85
2022/11/11 03:26:32;;;;;;;;;;;;;;;4.23;nan;102040.50;5056158;28;19912;-85
2022/11/11 03:28:57;;;;;;;;;;;;;;;4.16;nan;102035.66;5057197;28;19917;-85
2022/11/11 03:31:23;;;;;;;;;;;;;;;4.08;nan;102043.88;5046866;28;20293;-85
2022/11/11 03:33:48;;;;;;;8.23;4.23;;;;;;;4.04;nan;102050.16;5049303;28;19912;-85
2022/11/11 03:36:14;;;;;;;6.55;3.97;;;;;;;3.98;nan;102048.69;5061471;28;20738;-85
2022/11/11 03:38:39;;;;;;;4.47;3.38;;;;;;;3.93;nan;102055.91;5044124;28;20083;-85
2022/11/11 03:41:05;;;;;;;5.17;3.43;;;;;;;4.01;nan;102064.25;5069117;28;20963;-85
2022/11/11 03:43:32;;;;;;;6.00;3.38;;;;;;;3.92;nan;102062.03;5055191;28;20047;-85
2022/11/11 03:46:00;;;;;;;5.25;3.58;;;;;;;3.99;nan;102063.47;5071381;28;20439;-84
2022/11/11 03:48:29;;;;;;;4.97;3.33;;;;;;;4.06;nan;102066.66;5063512;28;20417;-85
2022/11/11 03:50:54;;;;;;;4.10;2.90;;;;;;;4.09;nan;102069.09;5049408;28;20482;-85
2022/11/11 03:53:21;;;;;;;4.50;3.00;;;;;;;4.12;nan;102068.13;5070258;28;20447;-84
2022/11/11 03:55:47;;;;;;;4.05;2.85;;;;;;;3.97;nan;102062.69;5047010;28;20045;-85
2022/11/11 03:58:13;;;;;;;4.55;2.97;;;;;;;4.05;nan;102072.78;5069802;28;21057;-85
2022/11/11 04:00:39;;;;;;;4.90;3.30;;;;;;;4.08;nan;102072.66;5049221;28;20499;-85
2022/11/11 04:11:27;;;;;;;;;;;;;;;3.88;nan;102081.41;5074823;28;19927;-85
2022/11/11 04:16:39;;;;;;;;;;;;;;;3.77;nan;102095.00;5074204;28;19919;-85
2022/11/11 04:21:48;;;;;;;;;;;;;;;3.65;nan;102102.53;5073910;28;19926;-85
2022/11/11 04:27:06;;;;;;;;;;;;;;;3.55;nan;102102.09;5053501;28;19926;-85
2022/11/11 04:29:32;;;;;;;;;;;;;;;3.51;nan;102104.00;5042751;28;19924;-85
2022/11/11 04:34:46;;;;;;;;;;;;;;;3.41;nan;102100.09;5072406;28;19954;-85
2022/11/11 04:37:12;;;;;;;;;;;;;;;3.36;nan;102102.03;5054504;28;20300;-85
2022/11/11 04:42:21;;;;;;;;;;;;;;;3.27;nan;102110.31;5056605;28;19939;-85
2022/11/11 04:47:31;;;;;;;;;;;;;;;3.22;nan;102107.00;5072260;28;19923;-85
2022/11/11 04:49:56;;;;;;;;;;;;;;;3.18;nan;102106.31;5054542;28;20015;-84
2022/11/11 04:52:30;;;;;;;;;;;;;;;3.16;nan;102108.97;5054614;28;19916;-85
2022/11/11 04:57:49;;;;;;;;;;;;;;;3.13;nan;102108.28;5087553;28;19958;-87
2022/11/11 05:00:16;;;;;;;;;;;;;;;3.11;nan;102104.88;5069133;28;19936;-87
2022/11/11 05:05:25;;;;;;;;;;;;;;;3.06;nan;102093.75;5069911;28;19967;-85
2022/11/11 05:10:35;;;;;;;;;;;;;;;3.01;nan;102086.13;5075245;28;19928;-85
2022/11/11 05:21:20;;;;;;;;;;;;;;;2.91;nan;102090.03;5073511;28;20003;-86
2022/11/11 05:26:29;;;;;;;;;;;;;;;2.89;nan;102097.94;5064495;28;20465;-84
2022/11/11 05:28:54;;;;;;;;;;;;;;;2.89;nan;102102.31;5061014;28;19964;-85
2022/11/11 05:31:19;;;;;;;;;;;;;;;2.88;nan;102103.22;5040244;28;19927;-85
2022/11/11 05:33:45;;;;;;;;;;;;;;;2.87;nan;102101.53;5048953;28;19913;-84
2022/11/11 05:36:10;;;;;;;;;;;;;;;2.89;nan;102115.38;5055549;28;19923;-85
2022/11/11 05:38:35;;;;;;;;;;;;;;;2.94;nan;102116.03;5066972;28;20420;-86
2022/11/11 05:41:00;;;;;;;;;;;;;;;2.99;nan;102119.31;5088932;28;20063;-86
2022/11/11 05:43:25;;;;;;;;;;;;;;;3.02;nan;102118.31;5069849;28;19991;-86
2022/11/11 05:45:51;;;;;;;;;;;;;;;3.02;nan;102120.94;5088469;28;19926;-86
2022/11/11 05:48:16;;;;;;;;;;;;;;;3.02;nan;102121.78;5064289;28;19912;-85
2022/11/11 05:50:41;;;;;;;;;;;;;;;3.04;nan;102125.19;5053679;28;19940;-86
2022/11/11 05:53:08;;;;;;;4.07;2.88;;;;;;;3.11;nan;102125.78;5056271;28;20369;-85
2022/11/11 05:55:33;;;;;;;5.18;3.67;;;;;;;3.19;nan;102135.00;5067730;28;20047;-85
2022/11/11 05:57:58;;;;;;;4.78;3.55;;;;;;;3.29;nan;102138.09;5062048;28;20115;-85
2022/11/11 06:00:24;;;;;;;4.95;3.83;;;;;;;3.38;nan;102142.06;5069521;28;20029;-86
2022/11/11 06:02:50;;;;;;;8.80;4.38;;;;;;;3.47;nan;102141.66;5052160;28;20082;-86
2022/11/11 06:05:15;;;;;;;5.47;3.70;;;;;;;3.54;nan;102139.63;5053075;28;20553;-85
2022/11/11 06:07:40;;;;;;;4.32;3.25;;;;;;;3.63;nan;102141.00;5072043;28;20041;-85
2022/11/11 06:13:08;;;;;;;5.10;3.70;;;;;;;3.78;nan;102133.31;5071360;28;20094;-85
2022/11/11 06:15:35;;;;;;;4.75;3.55;;;;;;;3.86;nan;102138.19;5053528;28;20040;-85
2022/11/11 06:18:02;;;;;;;5.10;3.67;;;;;;;3.92;nan;102142.31;5056674;28;20032;-85
2022/11/11 06:20:27;;;;;;;5.30;3.80;;;;;;;3.98;nan;102142.03;5052777;28;20043;-85
2022/11/11 06:22:56;;;;;;;5.93;3.55;;;;;;;4.06;nan;102154.81;5057394;28;20045;-85
2022/11/11 06:28:17;;;;;;;6.57;3.30;;;;;;;4.23;nan;102171.41;5076631;28;20044;-86
2022/11/11 06:30:43;;;;;;;12.18;3.90;;;;;;;4.28;nan;102160.75;5058723;28;20124;-86
2022/11/11 06:33:09;;;;;;;8.35;4.15;;;;;;;4.39;nan;102166.34;5056609;28;20422;-85
2022/11/11 06:35:35;;;;;;;18.90;5.82;;;;;;;4.52;nan;102163.13;5070330;28;20969;-86
2022/11/11 06:38:05;;;;;;;26.50;5.72;;;;;;;4.58;nan;102163.69;5071779;28;20486;-85
2022/11/11 06:40:31;;;;;;;16.63;5.37;;;;;;;4.63;nan;102176.59;5073568;28;21082;-85
2022/11/11 06:42:58;;;;;;;19.17;5.33;;;;;;;4.67;nan;102173.75;5066307;28;20415;-85
2022/11/11 06:45:25;;;;;;;14.52;4.78;;;;;;;4.74;nan;102184.75;5056762;28;20420;-87
2022/11/11 06:47:50;;;;;;;8.40;4.50;;;;;;;4.83;nan;102188.72;5052902;28;20935;-86
2022/11/11 06:50:16;;;;;;;3.97;3.03;;;;;;;4.94;nan;102199.56;5068591;28;20443;-85
2022/11/11 06:52:42;;;;;;;4.75;3.00;;;;;;;5.01;nan;102202.72;5060279;28;20409;-85
2022/11/11 06:55:07;;;;;;;5.43;2.92;;;;;;;4.99;nan;102205.41;5067239;28;20060;-85
2022/11/11 06:57:33;;;;;;;5.35;3.78;;;;;;;5.06;nan;102211.22;5042591;28;20048;-86
2022/11/11 06:59:58;;;;;;;7.55;4.05;;;;;;;5.11;nan;102203.97;5054769;28;20044;-86
2022/11/11 07:02:23;;;;;;;;;;;;;;;5.17;nan;102203.66;5048737;28;20052;-86
2022/11/11 07:04:48;;;;;;;;;;;;;;;5.20;nan;102205.31;5056304;28;20362;-86
2022/11/11 07:07:14;;;;;;;;;;;;;;;5.25;nan;102205.94;5056741;28;19916;-85
2022/11/11 07:09:39;;;;;;;;;;;;;;;5.28;nan;102211.84;5073784;28;19956;-85
2022/11/11 07:12:05;;;;;;;;;;;;;;;5.30;nan;102211.78;5044198;28;19913;-86
2022/11/11 07:14:31;;;;;;;17.15;5.95;;;;;;;5.36;nan;102218.50;5045361;28;19939;-85
2022/11/11 07:16:57;;;;;;;7.38;4.65;;;;;;;5.41;nan;102216.47;5062555;28;20553;-86
2022/11/11 07:19:22;;;;;;;14.20;5.70;;;;;;;5.55;nan;102216.63;5049501;28;20495;-86
2022/11/11 07:21:47;;;;;;;11.33;4.60;;;;;;;5.72;nan;102221.91;5047690;28;20505;-86
2022/11/11 07:24:13;;;;;;;12.90;4.83;;;;;;;5.87;nan;102219.41;5051467;28;20395;-86
2022/11/11 07:26:38;;;;;;;11.52;4.20;;;;;;;5.97;nan;102219.81;5048985;28;20818;-86
2022/11/11 07:29:03;;;;;;;10.50;4.20;;;;;;;6.08;nan;102218.31;5040112;28;20415;-86
2022/11/11 07:31:29;;;;;;;11.83;4.00;;;;;;;6.20;nan;102222.06;5061941;28;20716;-85
2022/11/11 07:33:54;;;;;;;16.23;3.92;;;;;;;6.22;nan;102224.59;5053364;28;20032;-86
2022/11/11 07:36:19;;;;;;;13.63;5.03;;;;;;;6.23;nan;102231.56;5043419;28;20723;-85
2022/11/11 07:38:45;;;;;;;16.50;5.70;;;;;;;6.28;nan;102234.78;5068971;28;20059;-86
2022/11/11 07:41:10;;;;;;;12.20;5.80;;;;;;;6.33;nan;102235.38;5053763;28;20033;-86
2022/11/11 07:43:36;;;;;;;9.02;5.43;;;;;;;6.40;nan;102243.78;5052851;28;20059;-87
2022/11/11 07:46:01;;;;;;;17.92;6.35;;;;;;;6.46;nan;102236.44;5063675;28;20040;-86
2022/11/11 07:48:26;;;;;;;23.27;8.30;;;;;;;6.46;nan;102239.06;5052677;28;20047;-86
2022/11/11 07:50:53;;;;;;;12.07;7.07;;;;;;;6.54;nan;102236.84;5064981;28;20119;-87
2022/11/11 07:53:19;;;;;;;12.95;6.95;;;;;;;6.65;nan;102241.53;5053660;28;20032;-86
2022/11/11 07:55:45;;;;;;;15.98;7.85;;;;;;;6.72;nan;102235.00;5050567;28;20029;-86
2022/11/11 07:58:11;;;;;;;17.73;7.72;;;;;;;6.80;nan;102237.22;5049147;28;20112;-87
2022/11/11 08:00:37;;;;;;;30.98;10.95;;;;;;;6.84;nan;102235.25;5054931;28;20102;-87
2022/11/11 08:03:03;;;;;;;18.67;10.55;;;;;;;6.80;nan;102239.84;5051161;28;20039;-86
2022/11/11 08:05:28;;;;;;;18.70;10.90;;;;;;;6.77;nan;102235.59;5044770;28;20440;-87
2022/11/11 08:07:53;;;;;;;21.38;12.60;;;;;;;6.69;nan;102237.78;5052974;28;20036;-87
2022/11/11 08:10:19;;;;;;;20.15;11.40;;;;;;;6.75;nan;102240.09;5045276;28;20045;-86
2022/11/11 08:15:28;;;;;;;18.88;10.70;;;;;;;6.92;nan;102236.53;5069895;28;20043;-86
2022/11/11 08:17:53;;;;;;;21.95;12.00;;;;;;;6.97;nan;102236.28;5049343;28;20107;-86
2022/11/11 08:20:19;;;;;;;18.85;11.35;;;;;;;7.10;nan;102234.63;5048668;28;20491;-86
2022/11/11 08:22:44;;;;;;;16.98;10.00;;;;;;;7.18;nan;102234.22;5044482;28;20048;-87
2022/11/11 08:25:13;;;;;;;27.20;12.15;;;;;;;7.21;nan;102231.41;5068687;28;20032;-87
2022/11/11 08:27:38;;;;;;;17.13;10.48;;;;;;;7.23;nan;102230.38;5049869;28;20580;-86
2022/11/11 08:30:06;;;;;;;17.02;10.02;;;;;;;7.26;nan;102223.25;5045368;28;20029;-87
2022/11/11 08:32:32;;;;;;;14.95;9.85;;;;;;;7.30;nan;102227.41;5049726;28;20571;-87
2022/11/11 08:34:57;;;;;;;15.68;9.45;;;;;;;7.35;nan;102223.56;5052105;28;20032;-86
2022/11/11 08:37:23;;;;;;;13.18;8.75;;;;;;;7.51;nan;102228.78;5043198;28;20090;-86
2022/11/11 08:39:48;;;;;;;10.98;7.57;;;;;;;7.66;nan;102227.84;5041424;28;20036;-86
2022/11/11 08:42:14;;;;;;;13.73;9.00;;;;;;;7.73;nan;102227.50;5048544;28;20041;-87
2022/11/11 08:44:39;;;;;;;21.10;9.48;;;;;;;7.84;nan;102233.84;5049496;28;20040;-86
2022/11/11 08:47:04;;;;;;;14.57;9.15;;;;;;;7.85;nan;102230.25;5052960;28;20097;-86
2022/11/11 08:49:30;;;;;;;13.30;9.10;;;;;;;7.95;nan;102233.16;5051800;28;20058;-86
2022/11/11 08:51:55;;;;;;;12.90;7.03;;;;;;;8.11;nan;102234.88;5050549;28;20047;-87
2022/11/11 08:54:20;;;;;;;11.68;7.70;;;;;;;8.16;nan;102240.72;5053260;28;20113;-86
2022/11/11 08:56:46;;;;;;;12.25;8.18;;;;;;;8.11;nan;102237.53;5044566;28;20037;-86
2022/11/11 08:59:11;;;;;;;11.40;7.68;;;;;;;8.15;nan;102237.25;5052613;28;20059;-86
2022/11/11 09:01:36;;;;;;;12.48;7.88;;;;;;;8.20;nan;102244.84;5052083;28;20043;-86
2022/11/11 09:04:02;;;;;;;12.93;8.57;;;;;;;8.21;nan;102244.75;5049360;28;20029;-86
2022/11/11 09:06:28;;;;;;;10.93;7.30;;;;;;;8.27;nan;102244.41;5069589;28;20382;-86
2022/11/11 09:08:54;;;;;;;10.73;7.18;;;;;;;8.37;nan;102249.09;5072881;28;20103;-86
2022/11/11 09:11:19;;;;;;;10.15;7.47;;;;;;;8.44;nan;102251.28;5071857;28;20517;-86
2022/11/11 09:13:46;;;;;;;11.55;7.72;;;;;;;8.58;nan;102247.78;5053169;28;20060;-86
2022/11/11 09:16:11;;;;;;;11.75;7.75;;;;;;;8.60;nan;102250.31;5048394;28;20484;-86
2022/11/11 09:18:37;;;;;;;10.05;6.75;;;;;;;8.66;nan;102249.94;5043193;28;20028;-86
2022/11/11 09:21:02;;;;;;;10.85;7.20;;;;;;;8.68;nan;102253.34;5069899;28;20132;-86
2022/11/11 09:23:29;;;;;;;15.93;8.40;;;;;;;8.55;nan;102245.31;5052152;28;20028;-86
2022/11/11 09:25:56;;;;;;;12.40;8.27;;;;;;;8.39;nan;102255.09;5070486;28;20059;-86
2022/11/11 09:28:22;;;;;;;10.95;7.72;;;;;;;8.38;nan;102258.69;5052255;28;20104;-86
2022/11/11 09:30:47;;;;;;;11.25;7.00;;;;;;;8.53;nan;102259.53;5052708;28;20501;-86
2022/11/11 09:33:15;;;;;;;9.65;7.00;;;;;;;8.73;nan;102266.22;5051590;28;20071;-86
2022/11/11 09:35:41;;;;;;;11.77;8.93;;;;;;;8.77;nan;102267.69;5048495;28;20052;-86
2022/11/11 09:38:06;;;;;;;11.18;8.27;;;;;;;8.78;nan;102266.78;5050484;28;20060;-86
2022/11/11 09:40:53;;;;;;;11.52;8.25;;;;;;;8.74;nan;102273.19;5051198;28;20056;-86
2022/11/11 09:43:55;;;;;;;10.43;7.15;;;;;;;8.78;nan;102269.41;5068897;28;20029;-86
2022/11/11 09:46:33;;;;;;;11.98;8.30;;;;;;;8.78;nan;102272.06;5069339;28;20036;-86
2022/11/11 09:49:22;;;;;;;14.40;8.40;;;;;;;8.91;nan;102267.66;5051136;28;20052;-87
2022/11/11 09:52:02;;;;;;;11.27;8.07;;;;;;;8.93;nan;102264.00;5043304;28;20041;-86
2022/11/11 09:54:54;;;;;;;13.98;8.65;;;;;;;8.87;nan;102258.28;5051234;28;20060;-87
2022/11/11 09:57:35;;;;;;;10.82;7.22;;;;;;;8.97;nan;102256.75;5047879;28;20041;-86
2022/11/11 10:00:05;;;;;;;12.48;7.45;;;;;;;9.06;nan;102257.94;5071743;28;20040;-86
2022/11/11 10:02:52;;;;;;;11.98;6.60;;;;;;;9.15;nan;102246.78;5053890;28;20594;-86
2022/11/11 10:05:26;;;;;;;13.20;7.80;;;;;;;9.18;nan;102251.88;5053236;28;20040;-86
2022/11/11 10:08:12;;;;;;;12.20;7.68;;;;;;;9.13;nan;102252.16;5057839;28;20035;-86
2022/11/11 10:10:44;;;;;;;9.07;6.78;;;;;;;9.32;nan;102248.31;5051661;28;20400;-86
2022/11/11 10:13:20;;;;;;;8.85;6.90;;;;;;;9.30;nan;102244.94;5054485;28;20090;-86
2022/11/11 10:16:00;;;;;;;11.00;7.97;;;;;;;9.31;nan;102241.34;5051373;28;20036;-86
2022/11/11 10:18:38;;;;;;;11.68;7.97;;;;;;;9.41;nan;102233.66;5051940;28;20037;-86
2022/11/11 10:21:13;;;;;;;9.48;6.35;;;;;;;9.51;nan;102238.22;5047979;28;20093;-86
2022/11/11 10:23:38;;;;;;;10.95;7.50;;;;;;;9.53;nan;102235.47;5053840;28;20036;-86
2022/11/11 10:26:24;;;;;;;10.10;7.45;;;;;;;9.50;nan;102233.88;5071149;28;20439;-86
2022/11/11 10:28:51;;;;;;;9.63;6.72;;;;;;;9.47;nan;102235.91;5053064;28;20036;-86
2022/11/11 10:31:21;;;;;;;13.60;9.57;;;;;;;9.43;nan;102232.59;5056474;28;20033;-86
2022/11/11 10:33:55;;;;;;;12.32;9.23;;;;;;;9.51;nan;102227.66;5052234;28;20496;-86
2022/11/11 10:36:23;;;;;;;13.68;9.20;;;;;;;9.60;nan;102220.91;5050931;28;20048;-86
2022/11/11 10:38:55;;;;;;;13.93;9.00;;;;;;;9.60;nan;102226.19;5055869;28;20032;-86
2022/11/11 10:41:32;;;;;;;8.73;6.95;;;;;;;9.69;nan;102220.28;5050549;28;20029;-86
2022/11/11 10:43:58;;;;;;;10.75;7.60;;;;;;;9.81;nan;102213.31;5070293;28;20371;-86
2022/11/11 10:46:29;;;;;;;14.52;9.63;;;;;;;9.59;nan;102208.66;5051442;28;20078;-87
2022/11/11 10:48:59;;;;;;;12.02;9.98;;;;;;;9.54;nan;102208.97;5069685;28;20071;-85
2022/11/11 10:51:29;;;;;;;10.25;7.93;;;;;;;9.63;nan;102207.50;5052796;28;20402;-86
2022/11/11 10:54:13;;;;;;;13.25;8.85;;;;;;;9.68;nan;102207.19;5066318;28;20469;-86
2022/11/11 10:57:10;;;;;;;11.48;8.80;;;;;;;9.71;nan;102205.19;5054595;28;20021;-85
2022/11/11 10:59:59;;;;;;;13.75;9.65;;;;;;;9.80;nan;102206.34;5053984;28;20024;-86
2022/11/11 11:02:35;;;;;;;11.32;9.18;;;;;;;9.80;nan;102198.44;5049970;28;20037;-86
2022/11/11 11:05:08;;;;;;;11.73;9.18;;;;;;;9.98;nan;102197.13;5051943;28;20048;-86
2022/11/11 11:07:39;;;;;;;10.82;8.15;;;;;;;10.18;nan;102198.41;5052229;28;20305;-87
2022/11/11 11:10:07;;;;;;;;;;;;;;;10.37;nan;102199.78;5050846;28;20040;-86
2022/11/11 11:12:42;;;;;;;12.02;9.20;;;;;;;10.40;nan;102189.81;5047614;28;19969;-86
2022/11/11 11:15:12;;;;;;;13.00;9.43;;;;;;;10.48;nan;102193.69;5056851;28;20048;-86
2022/11/11 11:18:10;;;;;;;12.25;9.52;;;;;;;10.51;nan;102204.94;5048539;28;20058;-86
2022/11/11 11:20:35;;;;;;;12.23;9.77;;;;;;;10.50;nan;102208.50;5053711;28;20502;-86
2022/11/11 11:23:01;;;;;;;12.48;9.70;;;;;;;10.40;nan;102203.03;5051081;28;20348;-86
2022/11/11 11:25:29;;;;;;;12.35;9.75;;;;;;;10.41;nan;102199.41;5052974;28;20476;-86
2022/11/11 11:28:12;;;;;;;13.63;9.07;;;;;;;10.68;nan;102198.41;5071969;28;20036;-86
2022/11/11 11:30:39;;;;;;;12.93;9.02;;;;;;;10.89;nan;102195.13;5053430;28;20052;-86
2022/11/11 11:33:07;;;;;;;13.05;10.05;;;;;;;11.08;nan;102200.75;5053248;28;20119;-86
2022/11/11 11:35:39;;;;;;;11.90;9.25;;;;;;;11.22;nan;102199.72;5052435;28;20025;-86
2022/11/11 11:38:06;;;;;;;13.32;9.40;;;;;;;11.33;nan;102193.66;5049507;28;20044;-86
2022/11/11 11:40:52;;;;;;;10.68;8.30;;;;;;;11.45;nan;102192.72;5069751;28;21674;-86
2022/11/11 11:43:35;;;;;;;9.77;7.97;;;;;;;11.48;nan;102187.16;5044201;28;20097;-87
2022/11/11 11:46:13;;;;;;;13.38;9.98;;;;;;;11.43;nan;102187.50;5050075;28;20114;-86
2022/11/11 11:48:48;;;;;;;10.55;8.70;;;;;;;11.39;nan;102180.78;5067631;28;20123;-86
2022/11/11 11:51:38;;;;;;;10.18;8.32;;;;;;;11.31;nan;102180.50;5066978;28;20337;-87
2022/11/11 11:54:31;;;;;;;10.32;7.40;;;;;;;11.22;nan;102171.44;5050602;28;20116;-86
2022/11/11 11:57:02;;;;;;;8.60;6.97;;;;;;;11.19;nan;102168.19;5045914;28;20040;-86
2022/11/11 11:59:27;;;;;;;;;;;;;;;11.20;nan;102173.38;5048959;28;20048;-86
2022/11/11 12:02:03;;;;;;;10.18;8.05;;;;;;;11.22;nan;102168.78;5044953;28;20434;-86
2022/11/11 12:04:31;;;;;;;11.35;8.68;;;;;;;11.15;nan;102177.31;5067061;28;20048;-85
2022/11/11 12:07:25;;;;;;;16.52;11.73;;;;;;;11.12;nan;102185.50;5050876;28;20040;-86
2022/11/11 12:10:22;;;;;;;12.75;9.07;;;;;;;11.22;nan;102182.03;5066392;28;20059;-85
2022/11/11 12:12:57;;;;;;;10.85;9.00;;;;;;;11.37;nan;102185.34;5068794;28;20037;-86
2022/11/11 12:15:26;;;;;;;11.70;9.25;;;;;;;11.36;nan;102174.88;5045855;28;20033;-86
2022/11/11 12:18:19;;;;;;;16.10;12.18;;;;;;;11.13;nan;102185.41;5066657;28;20066;-86
2022/11/11 12:20:54;;;;;;;20.33;15.77;;;;;;;10.94;nan;102185.06;5047128;28;20114;-87
2022/11/11 12:23:44;;;;;;;18.77;13.63;;;;;;;10.94;nan;102187.69;5049708;28;20098;-86
2022/11/11 12:26:19;;;;;;;15.32;11.25;;;;;;;11.11;nan;102195.25;5046621;28;20380;-85
2022/11/11 12:29:03;;;;;;;16.20;10.90;;;;;;;11.11;nan;102195.25;5049247;28;20498;-86
2022/11/11 12:31:53;;;;;;;23.58;17.27;;;;;;;10.91;nan;102199.34;5050730;28;20040;-86
2022/11/11 12:34:42;;;;;;;21.00;16.63;;;;;;;10.80;nan;102197.50;5050839;28;20116;-86
2022/11/11 12:37:13;;;;;;;15.90;13.48;;;;;;;10.87;nan;102197.91;5065809;28;20487;-86
2022/11/11 12:40:13;;;;;;;15.75;13.40;;;;;;;10.96;nan;102194.56;5063893;28;20405;-85
2022/11/11 12:42:51;;;;;;;12.87;11.27;;;;;;;11.14;nan;102199.47;5049695;28;20391;-86
2022/11/11 12:45:20;;;;;;;13.90;11.73;;;;;;;11.36;nan;102193.41;5045340;28;20413;-85
2022/11/11 12:47:52;;;;;;;13.32;11.55;;;;;;;11.50;nan;102192.38;5047426;28;20416;-86
2022/11/11 12:50:23;;;;;;;15.10;12.32;;;;;;;11.48;nan;102188.00;5065860;28;20494;-86
2022/11/11 12:53:05;;;;;;;11.93;10.43;;;;;;;11.62;nan;102186.13;5045611;28;20466;-85
2022/11/11 12:55:58;;;;;;;16.48;13.82;;;;;;;11.80;nan;102189.19;5069604;28;20415;-86
2022/11/11 12:58:37;;;;;;;13.70;11.90;;;;;;;11.76;nan;102187.72;5049812;28;20321;-86
2022/11/11 13:01:17;;;;;;;22.30;16.45;;;;;;;11.46;nan;102191.75;5044833;28;20645;-86
2022/11/11 13:04:20;;;;;;;19.42;15.02;;;;;;;11.27;nan;102195.81;5046385;28;20041;-86
2022/11/11 13:07:16;;;;;;;19.08;14.95;;;;;;;11.05;nan;102191.25;5049546;28;20040;-86
2022/11/11 13:09:53;;;;;;;26.10;17.80;;;;;;;11.03;nan;102187.84;5064993;28;20490;-86
2022/11/11 13:12:34;;;;;;;25.33;18.50;;;;;;;10.83;nan;102197.28;5047344;28;20579;-86
2022/11/11 13:15:17;;;;;;;30.00;22.35;;;;;;;10.69;nan;102197.44;5043625;28;20190;-86
2022/11/11 13:17:43;;;;;;;25.52;18.42;;;;;;;10.57;nan;102200.97;5061871;28;20048;-85
2022/11/11 13:20:34;;;;;;;21.60;15.75;;;;;;;10.65;nan;102188.03;5065647;28;20025;-85
2022/11/11 13:22:59;;;;;;;21.70;16.17;;;;;;;10.63;nan;102192.63;5049666;28;20390;-86
2022/11/11 13:25:29;;;;;;;21.60;15.30;;;;;;;10.60;nan;102192.81;5048487;28;20068;-85
2022/11/11 13:28:05;;;;;;;19.40;14.20;;;;;;;10.62;nan;102190.91;5049912;28;20040;-85
2022/11/11 13:30:57;;;;;;;25.10;18.13;;;;;;;10.51;nan;102197.00;5038833;28;20040;-85